Impacts TAF Board INFO
FOR SITUATIONAL AWARENESS. NOT TO BE USED FOR FLIGHT PLANNING PURPOSES.
IDs:

KBWI - Baltimore-Washington, MD, US

Issued at 1720 UTC 16 Dec 2017
Updated at 1838 UTC 16 Dec 2017
Potential Impact None Slight Moderate High
Time1754Z 16/19Z 16/20Z 16/21Z 16/22Z 16/23Z 17/00Z 17/01Z 17/02Z 17/03Z 17/04Z 17/05Z 17/06Z 17/07Z>>
Type OBS PRVL PRVL PRVL PRVL PRVL PRVL PRVL PRVL PRVL PRVL PRVL PRVL PRVL
VIS 10 >6 >6 >6 >6 >6 >6 >6 >6 >6 >6 >6 >6 >6
CIG -- 250 -- -- -- -- -- -- -- -- -- -- -- --
Cover SCT BKN SCT SCT SCT SCT SCT FEW FEW FEW FEW FEW FEW FEW
FltCat VFR VFR VFR VFR VFR VFR VFR VFR VFR VFR VFR VFR VFR VFR
WX -- -- -- -- -- -- -- -- -- -- -- -- -- --
WDir 200 240 240 240 240 240 240 260 260 260 260 260 260 260
WSpd 9 10 9 9 9 9 9 5 5 5 5 5 5 5
WGst -- -- -- -- -- -- -- -- -- -- -- -- -- --

Raw TAF
KBWI 161720Z 1618/1724 24010KT P6SM SCT070 BKN250
  FM162000 24009KT P6SM FEW060 SCT250
  FM170100 26005KT P6SM FEW130 FEW250
  FM171700 VRB03KT P6SM SCT045 BKN250


Raw METAR
KBWI 161754Z 20009KT 10SM FEW030 SCT150 06/M05 A3008 RMK AO2 SLP187 T00611050 10061 21033 56024 $
KBWI 161654Z 22012G19KT 10SM FEW150 05/M05 A3009 RMK AO2 SLP191 T00501050 $
KBWI 161554Z 21006G15KT 10SM FEW110 FEW250 03/M05 A3013 RMK AO2 SLP204 T00331050 $

METAR Board
Radar Display
Forecast Discussion

FOR SITUATIONAL AWARENESS. NOT TO BE USED FOR FLIGHT PLANNING PURPOSES.